Time;durP1;ratioP1;P1;durP2;ratioP2;P2;SDS_P1;SDS_P2;PMS_P1;PMS_P2;Temp;Humidity;BMP_temperature;BMP_pressure;BME280_temperature;BME280_humidity;BME280_pressure;Samples;Min_cycle;Max_cycle;Signal;HPM_P1;HPM_P2
2023/03/20 00:02:23;;;;;;;2.53;1.27;;;9.90;99.90;;;13.11;56.48;97838.63;5030707;28;20064;-53
2023/03/20 00:04:50;;;;;;;2.07;0.93;;;10.00;99.90;;;13.14;56.41;97832.94;5032023;28;20052;-47
2023/03/20 00:07:18;;;;;;;1.57;1.10;;;10.00;99.90;;;13.15;56.47;97831.91;5030519;28;20041;-45
2023/03/20 00:09:46;;;;;;;1.90;1.03;;;10.00;99.90;;;13.14;56.31;97829.41;5031472;28;20049;-46
2023/03/20 00:12:22;;;;;;;1.40;1.13;;;10.00;99.90;;;13.17;56.23;97829.06;5031236;28;20049;-46
2023/03/20 00:14:50;;;;;;;1.10;1.00;;;10.00;99.90;;;13.16;56.23;97832.72;5030441;28;20413;-43
2023/03/20 00:17:19;;;;;;;1.03;0.93;;;10.00;99.90;;;13.16;56.45;97838.09;5031582;28;20049;-46
2023/03/20 00:19:47;;;;;;;1.70;1.23;;;10.00;99.90;;;13.14;56.24;97830.25;5031296;28;20041;-44
2023/03/20 00:22:15;;;;;;;1.70;0.97;;;10.00;99.90;;;13.18;56.37;97831.56;5031022;28;20037;-47
2023/03/20 00:24:43;;;;;;;1.20;1.00;;;10.00;99.90;;;13.21;56.11;97841.09;5031389;28;20129;-44
2023/03/20 00:27:16;;;;;;;1.10;0.90;;;10.10;99.90;;;13.24;56.11;97839.88;5029847;28;20042;-49
2023/03/20 00:29:44;;;;;;;1.88;1.10;;;10.10;99.90;;;13.24;56.21;97839.88;5030106;28;20049;-48
2023/03/20 00:32:13;;;;;;;1.10;1.00;;;10.10;99.90;;;13.20;56.01;97834.06;5030113;28;20101;-48
2023/03/20 00:34:41;;;;;;;1.20;1.03;;;10.10;99.90;;;13.13;55.84;97833.94;5029710;28;20064;-49
2023/03/20 00:37:12;;;;;;;3.10;1.20;;;10.00;99.90;;;13.16;55.96;97841.63;5029700;28;20053;-44
2023/03/20 00:39:40;;;;;;;1.20;1.10;;;10.10;99.90;;;13.17;55.81;97850.47;5030825;28;20144;-46
2023/03/20 00:42:21;;;;;;;1.67;1.30;;;10.10;99.90;;;13.16;56.02;97843.44;5029446;28;20057;-44
2023/03/20 00:44:54;;;;;;;1.30;1.20;;;10.00;99.90;;;13.16;56.02;97844.28;5030216;28;20053;-46
2023/03/20 00:47:25;;;;;;;1.40;1.30;;;10.00;99.90;;;13.19;55.69;97846.59;5013811;28;20520;-43
2023/03/20 00:49:54;;;;;;;1.33;1.10;;;10.00;99.90;;;13.17;55.91;97845.09;5031070;28;20038;-46
2023/03/20 00:52:23;;;;;;;1.20;1.10;;;10.00;99.90;;;13.19;55.75;97841.25;5031101;28;20058;-49
2023/03/20 00:54:51;;;;;;;1.07;1.00;;;10.10;99.90;;;13.20;55.62;97842.94;5013357;28;20080;-47
2023/03/20 00:57:29;;;;;;;1.47;1.13;;;10.10;99.90;;;13.20;55.69;97839.41;5029420;28;20065;-51
2023/03/20 01:00:16;;;;;;;1.17;1.03;;;10.10;99.90;;;13.20;55.80;97845.59;5021975;28;20048;-47
2023/03/20 01:02:44;;;;;;;1.33;1.20;;;10.00;99.90;;;13.19;55.46;97843.91;5029834;28;20049;-51
2023/03/20 01:05:12;;;;;;;1.00;0.87;;;10.00;99.90;;;13.17;55.51;97845.09;5031107;28;20046;-49
2023/03/20 01:07:40;;;;;;;1.67;1.30;;;10.00;99.90;;;13.19;55.65;97856.47;5030845;28;20056;-44
2023/03/20 01:10:11;;;;;;;1.03;1.00;;;10.00;99.90;;;13.20;55.34;97852.75;5029643;28;20060;-44
2023/03/20 01:12:40;;;;;;;1.20;1.10;;;10.00;99.90;;;13.19;55.52;97851.94;5029892;28;20437;-46
2023/03/20 01:15:23;;;;;;;1.10;0.90;;;10.00;99.90;;;13.19;55.58;97851.13;5029598;28;20049;-47
2023/03/20 01:17:51;;;;;;;1.10;1.00;;;10.00;99.90;;;13.20;55.33;97847.41;5012722;28;20531;-45
2023/03/20 01:20:30;;;;;;;1.00;0.90;;;10.00;99.90;;;13.22;55.36;97844.56;5029988;28;20058;-48
2023/03/20 01:22:57;;;;;;;1.20;1.10;;;10.10;99.90;;;13.24;55.36;97843.41;5021522;28;20437;-46
2023/03/20 01:25:25;;;;;;;1.53;1.10;;;10.10;99.90;;;13.24;55.38;97848.78;5029585;28;20046;-45
2023/03/20 01:27:54;;;;;;;1.00;0.90;;;10.10;99.90;;;13.27;55.52;97852.94;5029404;28;20432;-44
2023/03/20 01:30:29;;;;;;;1.30;1.00;;;10.10;99.90;;;13.30;55.15;97847.25;5029446;28;20068;-46
2023/03/20 01:32:58;;;;;;;1.47;1.07;;;10.10;99.90;;;13.25;55.06;97845.06;5029150;28;20052;-43
2023/03/20 01:35:27;;;;;;;1.10;1.00;;;10.10;99.90;;;13.25;55.24;97845.06;5013270;28;20049;-45
2023/03/20 01:38:00;;;;;;;1.30;1.20;;;10.10;99.90;;;13.24;54.92;97846.09;5021586;28;20045;-45
2023/03/20 01:40:38;;;;;;;0.90;0.80;;;10.10;99.90;;;13.25;55.14;97855.75;5030852;28;20509;-46
2023/03/20 01:43:16;;;;;;;1.10;1.00;;;10.10;99.90;;;13.25;55.03;97849.59;5027930;28;20041;-46
2023/03/20 01:46:18;;;;;;;1.13;0.97;;;10.10;99.90;;;13.24;55.01;97856.78;5028914;28;20041;-48
2023/03/20 01:48:51;;;;;;;2.17;1.10;;;10.00;99.90;;;13.22;54.96;97856.09;5029448;28;20046;-44
2023/03/20 01:51:24;;;;;;;1.20;1.10;;;10.00;99.90;;;13.18;54.74;97858.31;5032940;28;20045;-47
2023/03/20 01:54:09;;;;;;;2.57;1.20;;;10.00;99.90;;;13.14;55.13;97856.13;5032428;28;20049;-44
2023/03/20 01:56:57;;;;;;;1.27;1.17;;;9.90;99.90;;;13.08;55.27;97860.31;5032806;28;20041;-43
2023/03/20 01:59:29;;;;;;;1.83;1.30;;;9.80;99.90;;;13.02;55.49;97866.38;5017393;28;20507;-47
2023/03/20 02:01:57;;;;;;;1.20;1.07;;;9.80;99.90;;;12.99;55.40;97866.72;5032361;28;20441;-49
2023/03/20 02:04:32;;;;;;;1.83;1.40;;;9.70;99.90;;;13.01;55.58;97867.38;5016319;28;20049;-43
2023/03/20 02:07:15;;;;;;;4.60;2.53;;;9.80;99.90;;;13.05;55.62;97879.41;5026467;28;20387;-44
2023/03/20 02:09:48;;;;;;;1.80;1.60;;;9.80;99.90;;;12.99;55.92;97874.75;5017329;28;20052;-47
2023/03/20 02:12:23;;;;;;;1.30;1.20;;;9.80;99.90;;;12.98;55.95;97878.41;5016636;28;20053;-47
2023/03/20 02:14:51;;;;;;;1.70;1.33;;;9.70;99.90;;;12.93;56.11;97876.25;5015843;28;20049;-44
2023/03/20 02:17:28;;;;;;;1.30;1.20;;;9.70;99.90;;;12.91;56.08;97875.59;5031975;28;20049;-46
2023/03/20 02:20:09;;;;;;;2.33;1.40;;;9.70;99.90;;;12.93;56.09;97881.59;5032768;28;20042;-44
2023/03/20 02:23:08;;;;;;;1.83;1.47;;;9.70;99.90;;;12.92;55.68;97869.22;5016886;28;20044;-44
2023/03/20 02:26:26;;;;;;;1.20;1.10;;;9.80;99.90;;;12.94;55.71;97877.91;5015884;28;20047;-44
2023/03/20 02:29:27;;;;;;;1.27;1.10;;;9.70;99.90;;;12.98;55.56;97875.72;5031615;28;20045;-48
2023/03/20 02:32:49;;;;;;;1.53;1.40;;;9.70;99.90;;;12.92;55.35;97876.41;5031914;28;20061;-45
2023/03/20 02:35:36;;;;;;;1.10;1.00;;;9.70;99.90;;;12.94;55.45;97877.91;4998468;28;20038;-47
2023/03/20 02:38:29;;;;;;;1.40;1.17;;;9.70;99.90;;;12.93;55.37;97883.41;5032265;28;20038;-47
2023/03/20 02:41:50;;;;;;;1.77;1.15;;;9.70;99.90;;;12.94;55.24;97877.91;5030489;28;20052;-47
2023/03/20 02:44:43;;;;;;;1.40;0.80;;;9.70;99.90;;;12.97;54.88;97874.06;5026470;28;20037;-43
2023/03/20 02:47:27;;;;;;;1.40;1.10;;;9.70;99.90;;;12.95;55.07;97871.56;5011079;28;20424;-45
2023/03/20 02:50:26;;;;;;;1.30;1.03;;;9.70;99.90;;;12.98;55.11;97873.06;5016504;28;20441;-46
2023/03/20 02:53:13;;;;;;;1.77;1.23;;;9.80;99.90;;;12.99;54.92;97888.09;5032486;28;20416;-45
2023/03/20 02:55:50;;;;;;;2.60;1.40;;;9.80;99.90;;;13.03;54.96;97884.09;5031619;28;20049;-46
2023/03/20 02:58:43;;;;;;;1.27;0.87;;;9.80;99.90;;;12.97;55.00;97880.25;5031180;28;20192;-45
2023/03/20 03:01:37;;;;;;;1.30;1.00;;;9.80;99.90;;;12.97;54.72;97884.75;5025944;28;20398;-47
2023/03/20 03:04:13;;;;;;;1.10;1.00;;;9.80;99.90;;;12.95;55.11;97884.94;5024016;28;20501;-43
2023/03/20 03:06:46;;;;;;;1.53;1.23;;;9.80;99.90;;;12.97;54.90;97887.44;5031593;28;20037;-45
2023/03/20 03:09:23;;;;;;;1.63;0.97;;;9.80;99.90;;;12.99;55.02;97890.78;5015332;28;20052;-43
2023/03/20 03:12:09;;;;;;;1.40;1.00;;;9.80;99.90;;;13.00;54.77;97887.91;5031420;28;20049;-44
2023/03/20 03:14:57;;;;;;;1.40;0.90;;;9.80;99.90;;;13.00;54.77;97889.75;5031289;28;20042;-43
2023/03/20 03:17:30;;;;;;;1.50;1.03;;;9.80;99.90;;;12.96;54.90;97891.94;5031007;28;20045;-43
2023/03/20 03:20:05;;;;;;;1.40;0.98;;;9.70;99.90;;;12.99;54.83;97896.13;5015258;28;20060;-43
2023/03/20 03:22:35;;;;;;;2.10;1.17;;;9.70;99.90;;;12.97;54.61;97892.78;5014812;28;20056;-44
2023/03/20 03:25:03;;;;;;;2.70;1.20;;;9.80;99.90;;;12.97;54.74;97898.13;5014935;28;20417;-44
2023/03/20 03:27:42;;;;;;;1.27;1.03;;;9.80;99.90;;;12.99;54.84;97902.28;5030646;28;20045;-46
2023/03/20 03:30:28;;;;;;;1.93;1.20;;;9.80;99.90;;;12.99;54.72;97901.47;5024693;28;20030;-45
2023/03/20 03:33:24;;;;;;;1.10;0.90;;;9.80;99.90;;;12.98;54.52;97897.09;5030942;28;20045;-44
2023/03/20 03:36:03;;;;;;;1.23;1.03;;;9.80;99.90;;;12.97;54.63;97900.81;5015390;28;20057;-49
2023/03/20 03:38:51;;;;;;;1.77;1.00;;;9.80;99.90;;;12.97;54.56;97900.81;5032119;28;20436;-47
2023/03/20 03:41:40;;;;;;;1.20;1.10;;;9.70;99.90;;;12.95;54.73;97902.78;5024422;28;20057;-47
2023/03/20 03:45:10;;;;;;;1.30;1.20;;;9.70;99.90;;;12.89;54.49;97893.63;5022646;28;20050;-43
2023/03/20 03:47:53;;;;;;;2.47;1.17;;;9.70;99.90;;;12.93;54.55;97896.78;5013961;28;20836;-49
2023/03/20 03:50:33;;;;;;;1.17;1.05;;;9.70;99.90;;;12.92;54.67;97895.94;5030840;28;20042;-49
2023/03/20 03:53:09;;;;;;;1.60;1.10;;;9.70;99.90;;;12.91;54.52;97904.97;5030259;28;20064;-45
2023/03/20 03:55:43;;;;;;;1.60;1.30;;;9.70;99.90;;;12.93;54.70;97905.66;5014372;28;20041;-47
2023/03/20 03:58:23;;;;;;;2.97;1.30;;;9.70;99.90;;;12.94;54.76;97909.97;5006911;28;20053;-44
2023/03/20 04:00:53;;;;;;;2.60;1.70;;;9.80;99.90;;;12.91;54.60;97907.66;5030597;28;20054;-47
2023/03/20 04:03:27;;;;;;;1.73;1.00;;;9.80;99.90;;;12.92;54.57;97905.81;5029908;28;20045;-43
2023/03/20 04:05:59;;;;;;;1.47;1.17;;;9.80;99.90;;;12.91;54.83;97913.00;5030236;28;20048;-44
2023/03/20 04:08:27;;;;;;;2.90;1.10;;;9.70;99.90;;;12.91;54.61;97904.13;5029960;28;20410;-44
2023/03/20 04:10:54;;;;;;;2.87;1.20;;;9.70;99.90;;;12.89;54.77;97911.47;5030090;28;20045;-45
2023/03/20 04:13:22;;;;;;;1.27;1.03;;;9.70;99.90;;;12.88;54.83;97905.31;5030026;28;20493;-44
2023/03/20 04:15:50;;;;;;;1.83;1.40;;;9.70;99.90;;;12.88;54.65;97905.31;5030001;28;20041;-45
2023/03/20 04:18:18;;;;;;;2.13;1.53;;;9.70;99.90;;;12.90;54.53;97903.31;5031219;28;20045;-47
2023/03/20 04:20:47;;;;;;;1.50;1.10;;;9.70;99.90;;;12.92;54.32;97905.81;5030444;28;20038;-44
2023/03/20 04:23:16;;;;;;;2.27;1.20;;;9.80;99.90;;;12.90;54.91;97889.94;5029485;28;20045;-49
2023/03/20 04:25:44;;;;;;;3.50;1.30;;;9.70;99.90;;;12.92;54.59;97889.78;5029783;28;20053;-47
2023/03/20 04:28:15;;;;;;;2.07;1.50;;;9.80;99.90;;;12.94;54.79;97891.25;5030309;28;20056;-45
2023/03/20 04:31:01;;;;;;;2.30;1.40;;;9.80;99.90;;;12.94;54.55;97896.63;5031373;28;20413;-46
2023/03/20 04:33:36;;;;;;;1.73;1.30;;;9.80;99.90;;;12.94;54.76;97891.25;5014181;28;20421;-44
2023/03/20 04:36:24;;;;;;;1.70;1.30;;;9.70;99.90;;;12.94;54.61;97895.78;5039808;28;20053;-44
2023/03/20 04:38:53;;;;;;;1.73;1.40;;;9.70;99.90;;;12.92;54.49;97895.13;5028851;28;20069;-43
2023/03/20 04:41:24;;;;;;;2.00;1.53;;;9.70;99.90;;;12.88;54.56;97897.28;5028983;28;20049;-46
2023/03/20 04:43:55;;;;;;;1.90;1.30;;;9.70;99.90;;;12.90;54.69;97902.47;5029965;28;20046;-44
2023/03/20 04:46:23;;;;;;;2.80;1.77;;;9.70;99.90;;;12.89;54.56;97904.31;5030044;28;20053;-44
2023/03/20 04:48:51;;;;;;;2.33;1.57;;;9.70;99.90;;;12.91;54.56;97912.16;5030799;28;20493;-43
2023/03/20 04:51:19;;;;;;;2.47;1.57;;;9.70;99.90;;;12.92;54.54;97914.66;5030141;28;20049;-46
2023/03/20 04:53:52;;;;;;;2.28;1.35;;;9.80;99.90;;;12.97;54.30;97911.50;5029385;28;20061;-47
2023/03/20 04:56:20;;;;;;;1.40;1.20;;;9.80;99.90;;;12.97;54.30;97914.16;5029496;28;20057;-44
2023/03/20 04:58:49;;;;;;;2.00;1.30;;;9.80;99.90;;;12.96;54.43;97915.16;5029263;28;20405;-44
2023/03/20 05:01:20;;;;;;;1.87;1.30;;;9.80;99.90;;;12.97;54.46;97914.16;5029555;28;20046;-48
2023/03/20 05:03:48;;;;;;;1.67;1.13;;;9.80;99.90;;;12.98;54.02;97915.81;5030827;28;20037;-46
2023/03/20 05:06:15;;;;;;;1.43;1.23;;;9.80;99.90;;;12.97;54.08;97923.00;5030273;28;20041;-45
2023/03/20 05:08:44;;;;;;;1.53;1.10;;;9.80;99.90;;;12.98;53.82;97921.16;5030041;28;20048;-44
2023/03/20 05:11:12;;;;;;;2.60;1.37;;;9.80;99.90;;;12.97;53.83;97915.00;5022097;28;20394;-43
2023/03/20 05:13:48;;;;;;;1.47;1.37;;;9.80;99.90;;;12.98;53.83;97930.00;5031556;28;20041;-47
2023/03/20 05:16:34;;;;;;;1.77;1.23;;;9.80;99.90;;;12.97;53.96;97930.19;5032454;28;20060;-48
2023/03/20 05:19:20;;;;;;;1.53;1.17;;;9.80;99.90;;;12.99;53.89;97930.84;5029529;28;20056;-45
2023/03/20 05:22:11;;;;;;;0.87;0.83;;;9.80;99.90;;;13.01;53.48;97923.50;5029782;28;20072;-48
2023/03/20 05:24:53;;;;;;;2.13;1.30;;;9.80;99.90;;;12.98;53.70;97916.63;5033410;28;20061;-45
2023/03/20 05:27:39;;;;;;;1.73;1.23;;;9.80;99.90;;;12.96;53.47;97913.31;5033003;28;20053;-45
2023/03/20 05:30:28;;;;;;;2.07;1.63;;;9.80;99.90;;;12.97;53.75;97917.66;5033670;28;20049;-44
2023/03/20 05:33:14;;;;;;;1.60;1.40;;;9.80;99.90;;;12.97;53.79;97919.50;5035667;28;20049;-43
2023/03/20 05:36:20;;;;;;;1.93;1.37;;;9.70;99.90;;;12.93;53.58;97920.81;5052493;28;20048;-47
2023/03/20 05:38:55;;;;;;;1.73;1.30;;;9.70;99.90;;;12.89;53.73;97925.69;5050797;28;20044;-44
2023/03/20 05:41:39;;;;;;;2.70;1.60;;;9.60;99.90;;;12.89;53.85;97933.72;5032515;28;20049;-50
2023/03/20 05:44:35;;;;;;;1.87;1.47;;;9.70;99.90;;;12.87;53.63;97938.41;5028129;28;20041;-47
2023/03/20 05:47:25;;;;;;;1.90;1.17;;;9.60;99.90;;;12.91;53.81;97944.22;5026132;28;20044;-45
2023/03/20 05:50:12;;;;;;;1.97;1.17;;;9.60;99.90;;;12.92;53.44;97940.53;5034560;28;20065;-44
2023/03/20 05:52:50;;;;;;;1.20;1.00;;;9.70;99.90;;;12.96;53.37;97947.22;5032771;28;20670;-45
2023/03/20 05:55:32;;;;;;;2.00;1.00;;;9.70;99.90;;;12.97;53.58;97949.72;5033001;28;20072;-45
2023/03/20 05:58:22;;;;;;;2.17;1.53;;;9.80;99.90;;;12.99;53.35;97953.06;5033719;28;20064;-43
2023/03/20 06:01:24;;;;;;;1.63;1.43;;;9.80;99.90;;;13.00;53.38;97949.38;5032904;28;20057;-45
2023/03/20 06:04:18;;;;;;;1.27;0.90;;;9.80;99.90;;;13.02;53.05;97957.22;5034804;28;20456;-47
2023/03/20 06:07:05;;;;;;;4.00;1.30;;;9.80;99.90;;;13.03;52.99;97958.06;5034655;28;20057;-45
2023/03/20 06:09:33;;;;;;;1.27;1.13;;;9.80;99.90;;;12.99;53.29;97954.91;5032435;28;20527;-43
2023/03/20 06:12:05;;;;;;;1.60;1.40;;;9.70;99.90;;;12.95;53.30;97958.91;5032450;28;20049;-49
2023/03/20 06:14:33;;;;;;;1.87;1.20;;;9.70;99.90;;;12.95;53.01;97948.22;5032077;28;20524;-46
2023/03/20 06:17:05;;;;;;;1.50;1.20;;;9.70;99.90;;;12.95;53.13;97951.75;5016571;28;20067;-46
2023/03/20 06:19:33;;;;;;;2.50;1.10;;;9.80;99.90;;;12.97;53.31;97955.06;5033355;28;20049;-51
2023/03/20 06:22:01;;;;;;;1.87;1.30;;;9.80;99.90;;;12.98;53.14;97950.56;5033734;28;20041;-49
2023/03/20 06:24:29;;;;;;;2.50;1.53;;;9.70;99.90;;;13.03;53.27;97947.38;5031871;28;20056;-46
2023/03/20 06:26:58;;;;;;;2.13;1.03;;;9.80;99.90;;;13.06;53.32;97952.38;5032206;28;20045;-49
2023/03/20 06:29:27;;;;;;;1.40;1.30;;;9.90;99.90;;;13.08;53.11;97947.69;5016024;28;20048;-47
2023/03/20 06:32:07;;;;;;;3.00;1.00;;;9.90;99.90;;;13.13;52.95;97945.38;5032141;28;20409;-47
2023/03/20 06:34:36;;;;;;;1.90;1.20;;;9.90;99.90;;;13.16;53.15;97947.69;5015992;28;20049;-49
2023/03/20 06:37:04;;;;;;;2.23;1.10;;;10.00;99.90;;;13.22;52.86;97948.84;5031874;28;20509;-51
2023/03/20 06:39:31;;;;;;;1.70;1.20;;;10.00;99.90;;;13.23;52.69;97950.53;5031801;28;20050;-47
2023/03/20 06:41:59;;;;;;;3.27;1.20;;;10.00;99.90;;;13.25;52.63;97953.84;5032051;28;20048;-47
2023/03/20 06:44:27;;;;;;;1.27;1.00;;;10.10;99.90;;;13.30;52.72;97952.38;5032021;28;20042;-49
2023/03/20 06:47:01;;;;;;;3.22;1.85;;;10.10;99.90;;;13.34;52.61;97943.00;5032926;28;20056;-51
2023/03/20 06:49:28;;;;;;;2.33;1.50;;;10.10;99.90;;;13.38;52.58;97946.19;5031235;28;20413;-51
2023/03/20 06:51:56;;;;;;;1.23;0.87;;;10.10;99.90;;;13.41;52.62;97961.03;5031997;28;20076;-49
2023/03/20 06:54:25;;;;;;;1.33;1.00;;;10.20;99.90;;;13.43;52.63;97954.50;5031624;28;20416;-47
2023/03/20 06:56:54;;;;;;;4.13;1.17;;;10.20;99.90;;;13.50;52.55;97957.34;5032393;28;20054;-51
2023/03/20 06:59:22;;;;;;;1.47;1.27;;;10.30;99.90;;;13.57;52.70;97974.34;5031683;28;20056;-50
2023/03/20 07:01:55;;;;;;;1.48;1.13;;;10.40;99.90;;;13.64;52.60;97978.00;5031326;28;20053;-45
2023/03/20 07:04:24;;;;;;;2.63;1.00;;;10.40;99.90;;;13.66;52.46;97981.34;5031395;28;20034;-48
2023/03/20 07:06:54;;;;;;;2.03;1.20;;;10.40;99.90;;;13.67;52.47;97977.69;5031676;28;20060;-47
2023/03/20 07:09:22;;;;;;;2.47;1.20;;;10.50;99.90;;;13.67;52.47;97985.69;5032637;28;20045;-50
2023/03/20 07:11:50;;;;;;;1.87;1.30;;;10.50;99.90;;;13.70;52.43;97990.69;5032671;28;20038;-49
2023/03/20 07:14:18;;;;;;;2.60;1.10;;;10.50;99.90;;;13.70;52.03;97995.22;5024790;28;20390;-50
2023/03/20 07:16:51;;;;;;;1.60;1.08;;;10.50;99.90;;;13.72;52.06;97998.53;5015750;28;20061;-46
2023/03/20 07:19:19;;;;;;;1.40;1.13;;;10.50;99.90;;;13.67;51.88;97990.22;5023725;28;20416;-51
2023/03/20 07:22:00;;;;;;;2.23;1.10;;;10.40;99.90;;;13.65;51.96;97997.56;5032584;28;20037;-49
2023/03/20 07:24:31;;;;;;;1.47;1.30;;;10.40;99.90;;;13.65;51.86;97992.22;5010045;28;20064;-52
2023/03/20 07:26:59;;;;;;;3.87;1.00;;;10.40;99.90;;;13.67;51.90;97993.72;5030403;28;20060;-48
2023/03/20 07:29:28;;;;;;;1.40;1.20;;;10.40;99.90;;;13.70;51.86;97990.69;5030548;28;20404;-50
2023/03/20 07:31:59;;;;;;;1.57;1.10;;;10.40;99.90;;;13.71;52.07;97991.53;5030830;28;20060;-50
2023/03/20 07:34:32;;;;;;;1.53;0.90;;;10.50;99.90;;;13.74;51.91;97986.66;5031028;28;20055;-50
2023/03/20 07:37:00;;;;;;;0.93;0.87;;;10.50;99.90;;;13.77;51.80;97990.84;5031451;28;20049;-49
2023/03/20 07:39:30;;;;;;;2.43;1.27;;;10.50;99.90;;;13.81;51.75;97994.84;5030587;28;20046;-47
2023/03/20 07:42:21;;;;;;;2.43;1.07;;;10.60;99.90;;;13.87;51.75;98002.16;5024407;28;20064;-47
2023/03/20 07:44:56;;;;;;;1.40;1.10;;;10.60;99.90;;;13.94;51.45;98002.31;5030560;28;20132;-50
2023/03/20 07:47:24;;;;;;;1.83;1.40;;;10.70;99.90;;;13.89;51.45;97999.31;5029085;28;20045;-42
2023/03/20 07:49:52;;;;;;;1.77;1.20;;;10.60;99.90;;;13.90;51.76;98004.50;5030882;28;20049;-42
2023/03/20 07:52:20;;;;;;;1.60;1.20;;;10.70;99.90;;;13.96;51.67;97997.63;5022911;28;20045;-44
2023/03/20 07:54:47;;;;;;;1.88;1.23;;;10.70;99.90;;;13.94;51.62;97997.81;5031582;28;20204;-43
2023/03/20 07:57:15;;;;;;;3.40;1.10;;;10.70;99.90;;;14.03;51.43;97989.72;5030933;28;20452;-45
2023/03/20 07:59:43;;;;;;;1.38;1.17;;;10.80;99.90;;;14.04;51.28;97994.91;5029882;28;20046;-46
2023/03/20 08:02:16;;;;;;;2.20;1.40;;;10.90;99.90;;;13.99;51.64;97991.91;5031530;28;20485;-46
2023/03/20 08:04:45;;;;;;;1.75;1.30;;;10.70;99.90;;;13.97;51.85;97997.44;5031522;28;20064;-44
2023/03/20 08:07:12;;;;;;;1.70;1.30;;;10.70;99.90;;;14.00;51.68;98004.31;5030875;28;20042;-45
2023/03/20 08:09:40;;;;;;;1.92;1.42;;;10.80;99.90;;;13.98;51.38;98003.66;5031687;28;20120;-42
2023/03/20 08:12:08;;;;;;;4.13;1.40;;;10.70;99.90;;;14.00;51.30;98004.31;5031351;28;20413;-43
2023/03/20 08:14:37;;;;;;;4.07;1.60;;;10.80;99.90;;;14.03;51.52;97998.59;5031316;28;20539;-44
2023/03/20 08:17:05;;;;;;;2.67;1.40;;;10.80;99.90;;;14.12;51.34;98010.09;5031514;28;20394;-42
2023/03/20 08:19:43;;;;;;;2.72;1.38;;;10.90;99.90;;;14.20;51.44;98011.91;5014766;28;20052;-46
2023/03/20 08:22:11;;;;;;;1.80;1.43;;;11.00;99.90;;;14.16;51.25;98001.53;5031216;28;20045;-44
2023/03/20 08:24:38;;;;;;;2.80;2.00;;;10.90;99.90;;;14.10;51.45;98006.78;5031018;28;20041;-44
2023/03/20 08:27:06;;;;;;;2.97;1.92;;;10.80;99.90;;;14.13;51.36;98006.41;5031163;28;20053;-44
2023/03/20 08:29:34;;;;;;;3.50;2.30;;;10.90;99.90;;;14.10;51.73;98004.09;5030903;28;20405;-44
2023/03/20 08:32:02;;;;;;;8.07;2.47;;;10.80;99.90;;;14.13;51.63;97998.38;5031067;28;20064;-45
2023/03/20 08:34:32;;;;;;;4.53;2.60;;;10.90;99.90;;;14.22;51.65;97999.19;5031279;28;20425;-45
2023/03/20 08:37:03;;;;;;;4.30;2.33;;;11.00;99.90;;;14.24;51.44;97995.31;5031177;28;20053;-46
2023/03/20 08:39:32;;;;;;;3.80;2.93;;;11.10;99.90;;;14.28;51.54;97999.28;5029432;28;20163;-44
2023/03/20 08:42:00;;;;;;;6.93;2.67;;;11.10;99.90;;;14.31;51.56;97996.28;5029121;28;20057;-46
2023/03/20 08:44:28;;;;;;;3.63;2.58;;;11.10;99.90;;;14.28;51.40;97999.28;5030031;28;20409;-45
2023/03/20 08:46:55;;;;;;;5.97;3.53;;;11.10;99.90;;;14.28;51.48;98001.16;5031071;28;20042;-46
2023/03/20 08:49:23;;;;;;;4.60;2.90;;;11.10;99.90;;;14.26;51.30;97992.47;5022575;28;20041;-45
2023/03/20 08:51:50;;;;;;;7.30;3.42;;;11.20;99.90;;;14.20;51.75;98002.03;5031427;28;20049;-45
2023/03/20 08:54:18;;;;;;;5.30;3.53;;;11.10;99.90;;;14.18;51.71;98004.88;5031091;28;20049;-43
2023/03/20 08:56:45;;;;;;;5.70;3.10;;;11.10;99.90;;;14.14;51.67;98008.09;5030874;28;20497;-44
2023/03/20 08:59:13;;;;;;;8.17;3.50;;;11.00;99.90;;;14.04;51.71;98000.28;5033467;28;20107;-45
2023/03/20 09:01:41;;;;;;;4.13;2.90;;;11.00;99.90;;;14.09;52.01;98005.91;5034991;28;20493;-42
2023/03/20 09:04:17;;;;;;;5.17;3.00;;;11.00;99.90;;;14.05;51.89;98006.44;5034761;28;20441;-47
2023/03/20 09:06:45;;;;;;;5.25;3.13;;;11.00;99.90;;;14.09;52.10;98008.59;5034854;28;20041;-45
2023/03/20 09:09:14;;;;;;;4.60;3.42;;;11.00;99.90;;;14.01;52.08;98008.63;5034193;28;20045;-48
2023/03/20 09:11:42;;;;;;;4.63;3.37;;;11.00;99.90;;;14.10;52.62;98012.13;5033590;28;20413;-46
2023/03/20 09:14:10;;;;;;;4.90;3.30;;;11.00;99.90;;;14.09;52.12;98013.13;5032527;28;20421;-46
2023/03/20 09:16:38;;;;;;;5.30;3.47;;;11.00;99.90;;;14.11;52.22;98011.09;5034901;28;20400;-43
2023/03/20 09:19:05;;;;;;;5.50;3.10;;;11.00;99.90;;;14.02;51.88;98002.28;5034254;28;20052;-42
2023/03/20 09:21:33;;;;;;;5.93;3.50;;;11.10;99.90;;;14.16;51.65;98006.88;5034797;28;20048;-45
2023/03/20 09:24:01;;;;;;;5.27;3.00;;;11.10;99.90;;;14.35;51.77;98013.66;5032922;28;20061;-45
2023/03/20 09:26:29;;;;;;;4.28;2.97;;;11.30;99.90;;;14.50;51.38;98018.25;5034609;28;20045;-46
2023/03/20 09:28:57;;;;;;;4.20;2.67;;;11.50;97.70;;;14.62;50.67;98014.19;5034328;28;20492;-43
2023/03/20 09:31:24;;;;;;;3.53;2.47;;;11.50;94.50;;;14.65;50.32;98013.00;5017007;28;20057;-43
2023/03/20 09:33:53;;;;;;;4.18;3.00;;;11.50;92.80;;;14.75;50.04;98013.59;5034353;28;20048;-42
2023/03/20 09:36:20;;;;;;;3.08;2.60;;;11.70;89.80;;;14.86;49.67;98007.81;5034372;28;20045;-46
2023/03/20 09:38:48;;;;;;;3.00;2.30;;;11.80;89.00;;;14.86;49.28;98010.50;5033849;28;20045;-42
2023/03/20 09:41:26;;;;;;;3.55;2.33;;;11.90;87.00;;;14.98;49.42;98018.13;5034276;28;20038;-42
2023/03/20 09:44:16;;;;;;;6.03;3.67;;;11.90;85.20;;;15.07;49.24;98019.72;5032715;28;20041;-50
2023/03/20 09:47:08;;;;;;;2.70;2.05;;;12.00;84.50;;;15.06;48.74;98021.56;5033448;28;20061;-42
2023/03/20 09:50:21;;;;;;;2.53;2.17;;;12.00;82.20;;;15.22;48.84;98022.41;5027717;28;20053;-42
2023/03/20 09:53:05;;;;;;;3.42;2.50;;;12.20;83.50;;;15.10;48.29;98022.03;5033953;28;20049;-45
2023/03/20 09:55:38;;;;;;;3.42;2.58;;;12.10;82.60;;;15.23;48.62;98034.84;5026752;28;20038;-44
2023/03/20 09:58:17;;;;;;;3.93;2.53;;;12.20;83.10;;;15.24;47.95;98031.97;5033502;28;20041;-47
2023/03/20 10:00:46;;;;;;;4.40;2.80;;;12.10;81.10;;;15.16;48.26;98030.19;5032574;28;20280;-44
2023/03/20 10:03:23;;;;;;;4.28;2.95;;;12.00;82.60;;;15.17;48.40;98022.97;5033553;28;20045;-45
2023/03/20 10:06:04;;;;;;;6.40;3.58;;;12.10;82.10;;;15.07;48.27;98025.91;5033488;28;20045;-46
2023/03/20 10:08:36;;;;;;;4.75;3.17;;;12.00;81.70;;;15.07;48.60;98030.44;5025997;28;20045;-42
2023/03/20 10:11:37;;;;;;;4.65;3.03;;;12.00;82.90;;;14.99;48.59;98033.19;5031565;28;20041;-42
2023/03/20 10:14:31;;;;;;;4.32;3.30;;;11.90;82.70;;;14.99;48.63;98033.19;5032564;28;20052;-42
2023/03/20 10:17:25;;;;;;;4.53;3.45;;;11.90;82.60;;;14.98;48.93;98034.19;5033696;28;20056;-44
2023/03/20 10:20:21;;;;;;;6.07;3.58;;;11.90;83.40;;;15.08;49.13;98038.31;5027634;28;20049;-46
2023/03/20 10:23:02;;;;;;;11.68;5.05;;;11.90;84.60;;;14.94;49.46;98039.09;5028272;28;20560;-45
2023/03/20 10:25:36;;;;;;;5.88;4.20;;;11.90;85.70;;;14.76;50.41;98040.22;5032710;28;20044;-45
2023/03/20 10:28:18;;;;;;;8.07;4.90;;;11.70;87.30;;;14.79;50.32;98046.22;5032117;28;20486;-44
2023/03/20 10:31:29;;;;;;;6.60;4.78;;;11.70;87.50;;;14.93;50.13;98037.44;5032452;28;20034;-42
2023/03/20 10:34:25;;;;;;;7.93;4.78;;;11.80;87.40;;;15.02;50.16;98038.19;5034512;28;20072;-44
2023/03/20 10:37:49;;;;;;;5.30;4.20;;;11.90;87.40;;;15.04;49.89;98028.13;5033852;28;20053;-46
2023/03/20 10:40:31;;;;;;;5.88;4.25;;;11.90;85.10;;;14.92;49.55;98033.91;5002813;28;20070;-43
2023/03/20 10:43:05;;;;;;;5.55;3.83;;;11.80;86.00;;;14.98;49.49;98032.34;5032037;28;20041;-46
2023/03/20 10:45:34;;;;;;;;;;;11.90;84.40;;;15.00;49.16;98030.31;5025597;28;20064;-47
2023/03/20 10:48:12;;;;;;;5.88;4.10;;;11.80;83.10;;;14.99;48.80;98023.31;5031339;28;20388;-46
2023/03/20 10:50:49;;;;;;;6.90;4.45;;;11.80;83.50;;;14.75;49.32;98041.25;5025169;28;20041;-46
2023/03/20 10:53:49;;;;;;;7.47;4.50;;;11.70;83.30;;;14.70;49.98;98030.22;5032519;28;20508;-42
2023/03/20 10:56:46;;;;;;;7.43;5.07;;;11.70;83.90;;;14.66;49.79;98028.09;5031641;28;20046;-42
2023/03/20 10:59:35;;;;;;;5.88;4.57;;;11.60;84.60;;;14.83;49.47;98028.78;5031536;28;20048;-44
2023/03/20 11:02:12;;;;;;;7.45;4.93;;;11.70;83.80;;;14.82;48.94;98021.75;5031598;28;20045;-45